Time;durP1;ratioP1;P1;durP2;ratioP2;P2;SDS_P1;SDS_P2;PMS_P1;PMS_P2;Temp;Humidity;BMP_temperature;BMP_pressure;BME280_temperature;BME280_humidity;BME280_pressure;Samples;Min_cycle;Max_cycle;Signal;HPM_P1;HPM_P2
2023/10/25 00:00:38;;;;;;;26.10;7.10;;;;;;;;;;4330090;32;317380;-91
2023/10/25 00:03:04;;;;;;;26.83;7.32;;;;;;;;;;4320274;32;356950;-86
2023/10/25 00:05:33;;;;;;;20.73;7.45;;;;;;;;;;4330168;32;318478;-88
2023/10/25 00:07:59;;;;;;;23.48;8.27;;;;;;;;;;4330038;32;318320;-83
2023/10/25 00:10:26;;;;;;;14.75;7.03;;;;;;;;;;4340625;32;318602;-89
2023/10/25 00:12:54;;;;;;;14.73;7.47;;;;;;;;;;4343822;32;318217;-85
2023/10/25 00:15:21;;;;;;;22.92;7.60;;;;;;;;;;4335277;32;317657;-90
2023/10/25 00:17:48;;;;;;;23.02;8.52;;;;;;;;;;4344905;32;318307;-90
2023/10/25 00:20:15;;;;;;;18.90;7.70;;;;;;;;;;4328873;32;318585;-93
2023/10/25 00:22:42;;;;;;;22.70;8.27;;;;;;;;;;4346366;32;317712;-92
2023/10/25 00:25:09;;;;;;;20.30;8.07;;;;;;;;;;4335215;32;318462;-92
2023/10/25 00:27:36;;;;;;;26.15;7.40;;;;;;;;;;4349064;32;318066;-87
2023/10/25 00:30:05;;;;;;;32.92;9.65;;;;;;;;;;4349797;32;317764;-82
2023/10/25 00:32:32;;;;;;;20.48;9.05;;;;;;;;;;4360577;32;317849;-83
2023/10/25 00:34:59;;;;;;;18.48;9.15;;;;;;;;;;4344018;32;318302;-91
2023/10/25 00:37:26;;;;;;;25.80;10.35;;;;;;;;;;4351847;32;317660;-95
2023/10/25 00:39:53;;;;;;;38.72;10.07;;;;;;;;;;4345888;32;319355;-94
2023/10/25 00:42:20;;;;;;;27.13;9.60;;;;;;;;;;4327303;32;319722;-91
2023/10/25 00:44:46;;;;;;;24.05;10.63;;;;;;;;;;4342737;32;318552;-90
2023/10/25 00:47:14;;;;;;;21.52;9.55;;;;;;;;;;4334796;32;319362;-90
2023/10/25 00:49:41;;;;;;;18.42;8.45;;;;;;;;;;4343650;32;318711;-90
2023/10/25 00:52:08;;;;;;;30.27;9.18;;;;;;;;;;4327241;32;318390;-89
2023/10/25 00:54:37;;;;;;;23.08;9.77;;;;;;;;;;4344021;32;318310;-85
2023/10/25 00:57:04;;;;;;;19.25;9.02;;;;;;;;;;4334124;32;318185;-92
2023/10/25 00:59:34;;;;;;;21.80;9.10;;;;;;;;;;4343989;32;318251;-93
2023/10/25 01:02:01;;;;;;;22.87;8.33;;;;;;;;;;4330942;32;318473;-83
2023/10/25 01:04:30;;;;;;;24.47;7.97;;;;;;;;;;4340568;32;318507;-91
2023/10/25 01:06:56;;;;;;;18.53;7.67;;;;;;;;;;4331217;32;347792;-93
2023/10/25 01:09:23;;;;;;;23.15;9.90;;;;;;;;;;4334082;32;318703;-89
2023/10/25 01:11:50;;;;;;;26.05;6.70;;;;;;;;;;4334000;32;318552;-93
2023/10/25 01:14:17;;;;;;;12.52;5.55;;;;;;;;;;4323222;32;317480;-86
2023/10/25 01:16:43;;;;;;;16.08;5.55;;;;;;;;;;4342537;32;318662;-88
2023/10/25 01:19:10;;;;;;;19.48;5.93;;;;;;;;;;4332731;32;318090;-88
2023/10/25 01:21:38;;;;;;;20.48;5.53;;;;;;;;;;4342179;32;318161;-94
2023/10/25 01:24:07;;;;;;;20.50;5.82;;;;;;;;;;4326075;32;318617;-89
2023/10/25 01:26:34;;;;;;;20.92;5.60;;;;;;;;;;4342994;32;317566;-87
2023/10/25 01:29:01;;;;;;;14.23;5.50;;;;;;;;;;4332438;32;318489;-94
2023/10/25 01:31:27;;;;;;;11.30;4.85;;;;;;;;;;4344662;32;323666;-88
2023/10/25 01:33:54;;;;;;;14.30;5.90;;;;;;;;;;4344552;32;318089;-92
2023/10/25 01:36:21;;;;;;;15.23;4.40;;;;;;;;;;4321492;32;417503;-92
2023/10/25 01:38:47;;;;;;;15.90;4.60;;;;;;;;;;4343540;32;318321;-93
2023/10/25 01:41:16;;;;;;;13.67;4.27;;;;;;;;;;4333966;32;318553;-92
2023/10/25 01:43:44;;;;;;;16.17;4.33;;;;;;;;;;4343926;32;317505;-85
2023/10/25 01:46:10;;;;;;;11.20;4.23;;;;;;;;;;4327687;32;318166;-93
2023/10/25 01:48:38;;;;;;;14.85;5.07;;;;;;;;;;4344408;32;318218;-90
2023/10/25 01:51:05;;;;;;;14.20;4.17;;;;;;;;;;4332687;32;352359;-87
2023/10/25 01:53:33;;;;;;;20.30;5.10;;;;;;;;;;4344560;32;318113;-88
2023/10/25 01:56:01;;;;;;;23.60;4.10;;;;;;;;;;4333909;32;317672;-92
2023/10/25 01:58:29;;;;;;;16.58;8.95;;;;;;;;;;4343203;32;340257;-89
2023/10/25 02:00:56;;;;;;;25.70;8.48;;;;;;;;;;4340359;32;318712;-88
2023/10/25 02:03:23;;;;;;;18.62;7.60;;;;;;;;;;4342351;32;317546;-87
2023/10/25 02:05:50;;;;;;;18.43;7.23;;;;;;;;;;4328940;32;318417;-87
2023/10/25 02:08:16;;;;;;;15.37;6.60;;;;;;;;;;4327948;32;318808;-87
2023/10/25 02:10:43;;;;;;;19.73;6.85;;;;;;;;;;4344190;32;317866;-87
2023/10/25 02:13:10;;;;;;;20.00;7.17;;;;;;;;;;4333474;32;318118;-84
2023/10/25 02:15:38;;;;;;;19.30;6.57;;;;;;;;;;4343979;32;318153;-94
2023/10/25 02:18:04;;;;;;;19.17;6.53;;;;;;;;;;4327849;32;317624;-87
2023/10/25 02:20:31;;;;;;;19.93;6.33;;;;;;;;;;4343680;32;318467;-93
2023/10/25 02:22:58;;;;;;;13.87;5.43;;;;;;;;;;4332532;32;317752;-87
2023/10/25 02:25:25;;;;;;;20.87;7.50;;;;;;;;;;4343665;32;330587;-92
2023/10/25 02:27:51;;;;;;;23.30;7.62;;;;;;;;;;4343713;32;318404;-94
2023/10/25 02:30:18;;;;;;;16.50;6.03;;;;;;;;;;4325692;32;318231;-83
2023/10/25 02:32:46;;;;;;;15.03;7.43;;;;;;;;;;4342299;32;318214;-93
2023/10/25 02:35:13;;;;;;;21.70;6.47;;;;;;;;;;4332180;32;318244;-94
2023/10/25 02:37:39;;;;;;;26.17;6.40;;;;;;;;;;4344002;32;318176;-84
2023/10/25 02:40:08;;;;;;;16.40;7.37;;;;;;;;;;4327965;32;318592;-90
2023/10/25 02:42:35;;;;;;;22.62;6.70;;;;;;;;;;4346385;32;318604;-90
2023/10/25 02:45:02;;;;;;;17.70;6.62;;;;;;;;;;4336668;32;318187;-89
2023/10/25 02:47:28;;;;;;;21.48;6.97;;;;;;;;;;4346802;32;318288;-85
2023/10/25 02:49:57;;;;;;;12.83;5.63;;;;;;;;;;4344081;32;318389;-95
2023/10/25 02:52:24;;;;;;;15.60;5.93;;;;;;;;;;4324723;32;417678;-93
2023/10/25 02:54:54;;;;;;;15.83;5.97;;;;;;;;;;4345919;32;327541;-86
2023/10/25 02:57:20;;;;;;;23.45;7.70;;;;;;;;;;4337497;32;318323;-88
2023/10/25 02:59:47;;;;;;;19.23;8.00;;;;;;;;;;4346779;32;318324;-87
2023/10/25 03:02:14;;;;;;;30.33;12.37;;;;;;;;;;4328739;32;318054;-88
2023/10/25 03:04:41;;;;;;;25.73;8.90;;;;;;;;;;4345728;32;318636;-86
2023/10/25 03:07:09;;;;;;;20.40;9.33;;;;;;;;;;4316907;32;318208;-86
2023/10/25 03:09:35;;;;;;;25.47;9.13;;;;;;;;;;4347809;32;318219;-86
2023/10/25 03:12:04;;;;;;;19.27;7.60;;;;;;;;;;4331674;32;318251;-93
2023/10/25 03:14:31;;;;;;;20.70;8.23;;;;;;;;;;4347338;32;318086;-87
2023/10/25 03:16:59;;;;;;;21.20;6.72;;;;;;;;;;4334704;32;333588;-87
2023/10/25 03:19:29;;;;;;;20.20;6.30;;;;;;;;;;4345563;32;318219;-87
2023/10/25 03:21:56;;;;;;;28.97;8.17;;;;;;;;;;4347837;32;318046;-88
2023/10/25 03:24:24;;;;;;;20.37;7.50;;;;;;;;;;4327734;32;419464;-87
2023/10/25 03:26:50;;;;;;;18.07;7.80;;;;;;;;;;4347116;32;317799;-88
2023/10/25 03:29:17;;;;;;;19.87;7.13;;;;;;;;;;4335349;32;318300;-89
2023/10/25 03:31:44;;;;;;;28.07;9.20;;;;;;;;;;4345548;32;317792;-85
2023/10/25 03:34:10;;;;;;;35.27;10.93;;;;;;;;;;4329979;32;318632;-83
2023/10/25 03:36:37;;;;;;;23.70;9.37;;;;;;;;;;4345832;32;319627;-88
2023/10/25 03:39:05;;;;;;;31.57;10.03;;;;;;;;;;4335595;32;317659;-88
2023/10/25 03:41:33;;;;;;;23.57;7.73;;;;;;;;;;4346466;32;318639;-87
2023/10/25 03:44:00;;;;;;;23.75;8.77;;;;;;;;;;4336514;32;318462;-87
2023/10/25 03:46:26;;;;;;;23.02;9.00;;;;;;;;;;4342109;32;318554;-90
2023/10/25 03:48:53;;;;;;;17.83;7.83;;;;;;;;;;4345597;32;317421;-89
2023/10/25 03:51:20;;;;;;;19.77;8.23;;;;;;;;;;4333428;32;318276;-86
2023/10/25 03:53:46;;;;;;;22.27;8.02;;;;;;;;;;4347162;32;318305;-87
2023/10/25 03:56:13;;;;;;;15.75;7.55;;;;;;;;;;4328840;32;318650;-90
2023/10/25 03:58:41;;;;;;;15.90;6.60;;;;;;;;;;4334055;32;331187;-88
2023/10/25 04:01:08;;;;;;;25.53;8.03;;;;;;;;;;4326270;32;319342;-89
2023/10/25 04:03:35;;;;;;;24.95;7.50;;;;;;;;;;4332074;32;318358;-85
2023/10/25 04:06:03;;;;;;;21.70;6.95;;;;;;;;;;4331471;32;318532;-86
2023/10/25 04:08:30;;;;;;;24.05;6.70;;;;;;;;;;4329628;32;318877;-94
2023/10/25 04:10:58;;;;;;;15.60;6.53;;;;;;;;;;4333523;32;318355;-87
2023/10/25 04:13:25;;;;;;;28.35;7.43;;;;;;;;;;4330892;32;318665;-85
2023/10/25 04:15:57;;;;;;;24.17;7.47;;;;;;;;;;4337979;32;318217;-88
2023/10/25 04:18:25;;;;;;;24.20;7.28;;;;;;;;;;4311794;32;417276;-89
2023/10/25 04:20:52;;;;;;;23.95;8.63;;;;;;;;;;4336693;32;318442;-86
2023/10/25 04:23:19;;;;;;;20.35;9.75;;;;;;;;;;4324572;32;318242;-86
2023/10/25 04:25:46;;;;;;;21.58;11.38;;;;;;;;;;4334547;32;317820;-91
2023/10/25 04:28:13;;;;;;;26.27;12.70;;;;;;;;;;4321199;32;319865;-87
2023/10/25 04:30:40;;;;;;;19.95;10.07;;;;;;;;;;4330544;32;319955;-89
2023/10/25 04:33:08;;;;;;;24.23;8.23;;;;;;;;;;4326971;32;319806;-86
2023/10/25 04:35:37;;;;;;;16.20;7.97;;;;;;;;;;4335269;32;318957;-89
2023/10/25 04:38:04;;;;;;;16.53;6.60;;;;;;;;;;4317756;32;318396;-91
2023/10/25 04:40:32;;;;;;;19.85;7.90;;;;;;;;;;4339173;32;345130;-86
2023/10/25 04:42:59;;;;;;;24.63;9.77;;;;;;;;;;4324267;32;318439;-86
2023/10/25 04:45:25;;;;;;;35.83;11.40;;;;;;;;;;4339245;32;318275;-87
2023/10/25 04:47:52;;;;;;;19.70;8.68;;;;;;;;;;4337544;32;319185;-87
2023/10/25 04:50:21;;;;;;;17.67;8.52;;;;;;;;;;4349614;32;317630;-88
2023/10/25 04:52:48;;;;;;;17.50;8.15;;;;;;;;;;4351164;32;316884;-85
2023/10/25 04:55:14;;;;;;;17.92;7.25;;;;;;;;;;4340657;32;346751;-92
2023/10/25 04:57:41;;;;;;;28.73;9.30;;;;;;;;;;4340887;32;318292;-92
2023/10/25 05:00:09;;;;;;;25.17;7.78;;;;;;;;;;4317630;32;317988;-90
2023/10/25 05:02:37;;;;;;;26.67;8.38;;;;;;;;;;4337897;32;318267;-89
2023/10/25 05:05:05;;;;;;;18.65;7.72;;;;;;;;;;4325533;32;317017;-86
2023/10/25 05:07:34;;;;;;;19.80;6.80;;;;;;;;;;4330791;32;417833;-87
2023/10/25 05:10:01;;;;;;;19.80;6.78;;;;;;;;;;4344010;32;318643;-88
2023/10/25 05:12:37;;;;;;;26.40;8.30;;;;;;;;;;4325808;32;317943;-90
2023/10/25 05:15:04;;;;;;;22.25;8.23;;;;;;;;;;4344662;32;328453;-89
2023/10/25 05:17:32;;;;;;;19.83;7.50;;;;;;;;;;4332775;32;417613;-89
2023/10/25 05:19:59;;;;;;;18.98;7.78;;;;;;;;;;4345088;32;317125;-87
2023/10/25 05:22:27;;;;;;;14.73;6.60;;;;;;;;;;4323295;32;318519;-88
2023/10/25 05:24:56;;;;;;;22.85;8.52;;;;;;;;;;4343535;32;316868;-89
2023/10/25 05:27:23;;;;;;;24.92;7.37;;;;;;;;;;4334332;32;318116;-87
2023/10/25 05:29:52;;;;;;;21.07;8.37;;;;;;;;;;4343033;32;318020;-91
2023/10/25 05:32:20;;;;;;;22.70;7.93;;;;;;;;;;4327185;32;318001;-89
2023/10/25 05:34:48;;;;;;;23.83;7.10;;;;;;;;;;4345025;32;349857;-90
2023/10/25 05:37:15;;;;;;;21.73;7.17;;;;;;;;;;4333441;32;318283;-88
2023/10/25 05:39:42;;;;;;;28.47;8.23;;;;;;;;;;4341693;32;317936;-93
2023/10/25 05:42:17;;;;;;;21.58;7.32;;;;;;;;;;4327379;32;316987;-83
2023/10/25 05:44:45;;;;;;;28.37;7.13;;;;;;;;;;4342406;32;317920;-85
2023/10/25 05:47:11;;;;;;;27.77;8.63;;;;;;;;;;4333534;32;324967;-93
2023/10/25 05:49:39;;;;;;;25.93;9.00;;;;;;;;;;4343608;32;317116;-84
2023/10/25 05:52:07;;;;;;;28.98;9.57;;;;;;;;;;4333574;32;317875;-86
2023/10/25 05:54:35;;;;;;;38.67;8.02;;;;;;;;;;4343723;32;318251;-83
2023/10/25 05:57:02;;;;;;;31.35;8.02;;;;;;;;;;4340427;32;317916;-86
2023/10/25 05:59:32;;;;;;;22.77;8.43;;;;;;;;;;4330657;32;317806;-86
2023/10/25 06:02:09;;;;;;;39.47;11.82;;;;;;;;;;4332953;32;318313;-88
2023/10/25 06:04:38;;;;;;;29.87;12.63;;;;;;;;;;4320024;32;417625;-86
2023/10/25 06:07:05;;;;;;;26.67;9.80;;;;;;;;;;4337851;32;317963;-85
2023/10/25 06:09:33;;;;;;;24.33;10.10;;;;;;;;;;4328193;32;418781;-87
2023/10/25 06:12:00;;;;;;;29.85;11.73;;;;;;;;;;4327797;32;317979;-85
2023/10/25 06:14:28;;;;;;;25.17;9.43;;;;;;;;;;4312352;32;318402;-88
2023/10/25 06:16:56;;;;;;;30.25;11.10;;;;;;;;;;4328746;32;316831;-84
2023/10/25 06:19:23;;;;;;;37.53;15.85;;;;;;;;;;4327751;32;317964;-92
2023/10/25 06:21:50;;;;;;;34.92;13.43;;;;;;;;;;4343263;32;319628;-88
2023/10/25 06:24:17;;;;;;;29.98;13.43;;;;;;;;;;4326670;32;319204;-86
2023/10/25 06:26:43;;;;;;;32.75;13.77;;;;;;;;;;4345288;32;319554;-92
2023/10/25 06:29:10;;;;;;;29.87;11.00;;;;;;;;;;4335900;32;319400;-92
2023/10/25 06:31:37;;;;;;;26.33;12.20;;;;;;;;;;4342846;32;318404;-94
2023/10/25 06:34:05;;;;;;;42.72;13.02;;;;;;;;;;4343373;32;357543;-93
2023/10/25 06:36:33;;;;;;;39.73;13.17;;;;;;;;;;4318016;32;418543;-90
2023/10/25 06:39:04;;;;;;;34.05;14.30;;;;;;;;;;4330148;33;319630;-95
2023/10/25 06:41:32;;;;;;;47.45;19.33;;;;;;;;;;4315243;33;420790;-89
2023/10/25 06:44:00;;;;;;;46.45;23.95;;;;;;;;;;4327389;32;319352;-90
2023/10/25 06:46:27;;;;;;;51.53;26.15;;;;;;;;;;4315178;32;319261;-92
2023/10/25 06:48:56;;;;;;;50.63;26.80;;;;;;;;;;4333082;32;319518;-86
2023/10/25 06:51:25;;;;;;;50.08;22.50;;;;;;;;;;4312731;32;331048;-85
2023/10/25 06:53:52;;;;;;;55.50;23.92;;;;;;;;;;4344754;32;319836;-84
2023/10/25 06:56:20;;;;;;;69.20;25.37;;;;;;;;;;4327180;32;318806;-86
2023/10/25 06:58:47;;;;;;;67.25;28.48;;;;;;;;;;4343516;32;318403;-88
2023/10/25 07:01:17;;;;;;;62.17;25.80;;;;;;;;;;4333718;32;318872;-85
2023/10/25 07:03:47;;;;;;;59.38;25.12;;;;;;;;;;4328224;32;319571;-87
2023/10/25 07:06:16;;;;;;;49.20;21.30;;;;;;;;;;4326785;32;319905;-84
2023/10/25 07:08:45;;;;;;;37.47;19.43;;;;;;;;;;4342360;32;319028;-84
2023/10/25 07:11:12;;;;;;;37.70;19.87;;;;;;;;;;4332103;32;320037;-86
2023/10/25 07:13:39;;;;;;;43.63;19.42;;;;;;;;;;4343874;32;319531;-82
2023/10/25 07:16:07;;;;;;;37.53;18.05;;;;;;;;;;4333643;32;319282;-88
2023/10/25 07:18:34;;;;;;;41.42;18.75;;;;;;;;;;4338767;32;317839;-89
2023/10/25 07:21:01;;;;;;;42.03;16.05;;;;;;;;;;4343543;32;319399;-90
2023/10/25 07:23:28;;;;;;;37.92;16.33;;;;;;;;;;4331606;32;318547;-90
2023/10/25 07:25:56;;;;;;;41.17;15.85;;;;;;;;;;4343649;32;343701;-91
2023/10/25 07:28:23;;;;;;;37.35;17.20;;;;;;;;;;4329292;32;318920;-88
2023/10/25 07:30:50;;;;;;;43.87;17.30;;;;;;;;;;4347863;32;318834;-87
2023/10/25 07:33:17;;;;;;;30.30;16.23;;;;;;;;;;4335406;32;335984;-87
2023/10/25 07:35:44;;;;;;;41.07;16.70;;;;;;;;;;4341248;32;358417;-88
2023/10/25 07:38:11;;;;;;;40.85;16.87;;;;;;;;;;4335975;32;319488;-89
2023/10/25 07:40:39;;;;;;;42.55;18.48;;;;;;;;;;4352538;32;318387;-89
2023/10/25 07:43:08;;;;;;;32.22;17.75;;;;;;;;;;4339701;32;319377;-88
2023/10/25 07:45:35;;;;;;;49.10;18.33;;;;;;;;;;4348364;32;318589;-88
2023/10/25 07:48:01;;;;;;;75.43;32.13;;;;;;;;;;4349337;32;319670;-86
2023/10/25 07:50:28;;;;;;;71.78;35.40;;;;;;;;;;4334114;32;318461;-86
2023/10/25 07:52:55;;;;;;;86.53;50.40;;;;;;;;;;4350729;32;318933;-86
2023/10/25 07:55:22;;;;;;;70.70;39.75;;;;;;;;;;4341109;32;349535;-86
2023/10/25 07:57:48;;;;;;;88.15;47.65;;;;;;;;;;4352043;32;319942;-88
2023/10/25 08:00:17;;;;;;;71.47;36.20;;;;;;;;;;4326943;32;317823;-88
2023/10/25 08:02:44;;;;;;;54.67;26.90;;;;;;;;;;4320350;32;319209;-90
2023/10/25 08:05:10;;;;;;;56.45;24.58;;;;;;;;;;4305564;32;319136;-90
2023/10/25 08:07:37;;;;;;;56.53;27.52;;;;;;;;;;4316571;33;319837;-89
2023/10/25 08:10:06;;;;;;;58.10;24.70;;;;;;;;;;4319855;32;319431;-88
2023/10/25 08:12:35;;;;;;;40.20;22.80;;;;;;;;;;4307068;32;419673;-87
2023/10/25 08:15:03;;;;;;;44.97;20.95;;;;;;;;;;4322884;32;319539;-90
2023/10/25 08:17:31;;;;;;;60.38;23.33;;;;;;;;;;4322038;32;319149;-87
2023/10/25 08:19:58;;;;;;;43.17;21.23;;;;;;;;;;4305740;32;319045;-88
2023/10/25 08:22:25;;;;;;;43.03;19.67;;;;;;;;;;4308553;32;319374;-91
2023/10/25 08:24:51;;;;;;;57.67;21.67;;;;;;;;;;4321868;32;319424;-87
2023/10/25 08:27:19;;;;;;;65.18;32.15;;;;;;;;;;4318967;32;319224;-89
2023/10/25 08:29:45;;;;;;;57.58;29.73;;;;;;;;;;4320784;32;319349;-88
2023/10/25 08:32:12;;;;;;;73.22;34.60;;;;;;;;;;4307580;32;319413;-87
2023/10/25 08:34:46;;;;;;;74.75;36.83;;;;;;;;;;4326644;32;319259;-87
2023/10/25 08:37:13;;;;;;;68.00;35.88;;;;;;;;;;4310229;32;319369;-90
2023/10/25 08:39:40;;;;;;;68.90;30.33;;;;;;;;;;4324662;32;319540;-90
2023/10/25 08:42:10;;;;;;;62.58;27.95;;;;;;;;;;4313504;32;319021;-88
2023/10/25 08:44:40;;;;;;;81.12;38.13;;;;;;;;;;4327184;32;319283;-89
2023/10/25 08:47:08;;;;;;;64.03;32.80;;;;;;;;;;4318456;32;319647;-89
2023/10/25 08:49:35;;;;;;;62.70;32.30;;;;;;;;;;4328829;32;318715;-89
2023/10/25 08:52:04;;;;;;;86.55;43.05;;;;;;;;;;4329960;32;319122;-90
2023/10/25 08:54:31;;;;;;;54.75;31.55;;;;;;;;;;4311678;32;319396;-89
2023/10/25 08:56:58;;;;;;;73.75;32.55;;;;;;;;;;4307397;32;318904;-89
2023/10/25 08:59:25;;;;;;;62.33;29.60;;;;;;;;;;4319019;32;327823;-91
2023/10/25 09:01:52;;;;;;;60.45;25.20;;;;;;;;;;4330565;32;318882;-92
2023/10/25 09:04:19;;;;;;;65.30;25.85;;;;;;;;;;4317138;32;319433;-92
2023/10/25 09:06:46;;;;;;;58.03;26.02;;;;;;;;;;4323534;32;319891;-89
2023/10/25 09:09:14;;;;;;;84.87;42.88;;;;;;;;;;4348689;32;318192;-89
2023/10/25 09:11:44;;;;;;;63.58;32.80;;;;;;;;;;4344899;32;317550;-87
2023/10/25 09:14:13;;;;;;;64.72;25.08;;;;;;;;;;4325723;32;353355;-90
2023/10/25 09:16:41;;;;;;;50.22;21.77;;;;;;;;;;4341587;32;318170;-95
2023/10/25 09:19:08;;;;;;;42.95;18.70;;;;;;;;;;4322228;32;319112;-91
2023/10/25 09:21:35;;;;;;;53.17;21.27;;;;;;;;;;4328810;32;319060;-92
2023/10/25 09:24:07;;;;;;;45.15;21.52;;;;;;;;;;4330075;32;319617;-94
2023/10/25 09:26:39;;;;;;;47.30;21.30;;;;;;;;;;4312390;32;420089;-90
2023/10/25 09:29:08;;;;;;;50.00;21.45;;;;;;;;;;4318628;32;328734;-95
2023/10/25 09:31:37;;;;;;;45.05;21.58;;;;;;;;;;4328345;32;317907;-93
2023/10/25 09:34:08;;;;;;;46.95;21.42;;;;;;;;;;4330350;32;319150;-92
2023/10/25 09:36:35;;;;;;;43.65;21.10;;;;;;;;;;4316897;32;416416;-93
2023/10/25 09:39:02;;;;;;;45.55;20.15;;;;;;;;;;4332459;32;319480;-91
2023/10/25 09:41:33;;;;;;;37.35;20.58;;;;;;;;;;4320003;32;319520;-92
2023/10/25 09:44:02;;;;;;;39.53;21.62;;;;;;;;;;4330430;32;318699;-89
2023/10/25 09:46:32;;;;;;;39.00;18.17;;;;;;;;;;4304208;32;319499;-91
2023/10/25 09:49:06;;;;;;;45.03;17.58;;;;;;;;;;4312849;33;345139;-89
2023/10/25 09:51:42;;;;;;;30.08;17.10;;;;;;;;;;4310905;32;419133;-89
2023/10/25 09:54:12;;;;;;;37.58;17.50;;;;;;;;;;4330951;32;319074;-87
2023/10/25 11:01:19;;;;;;;46.87;13.93;;;;;;;;;;4437672;31;20395;-87
2023/10/25 11:03:46;;;;;;;40.28;11.23;;;;;;;;;;4399609;32;318511;-89
2023/10/25 11:06:13;;;;;;;32.50;11.63;;;;;;;;;;4383658;32;319507;-89
2023/10/25 11:08:39;;;;;;;37.90;10.75;;;;;;;;;;4401710;32;319888;-88
2023/10/25 11:11:06;;;;;;;34.67;11.45;;;;;;;;;;4390621;32;318657;-90
2023/10/25 11:13:33;;;;;;;36.63;10.02;;;;;;;;;;4401835;32;318749;-88
2023/10/25 11:16:06;;;;;;;33.85;10.68;;;;;;;;;;4401965;32;328985;-87
2023/10/25 11:18:34;;;;;;;45.92;10.48;;;;;;;;;;4383258;32;418290;-88
2023/10/25 11:21:01;;;;;;;36.97;10.35;;;;;;;;;;4400964;32;319078;-90
2023/10/25 11:23:29;;;;;;;31.20;10.55;;;;;;;;;;4388618;32;337270;-89
2023/10/25 11:25:55;;;;;;;29.05;9.07;;;;;;;;;;4403106;32;319491;-88
2023/10/25 11:28:23;;;;;;;38.63;8.77;;;;;;;;;;4385285;32;318429;-89
2023/10/25 11:30:51;;;;;;;36.58;8.98;;;;;;;;;;4402965;32;317721;-91
2023/10/25 11:33:17;;;;;;;41.10;10.45;;;;;;;;;;4392297;32;318220;-90
2023/10/25 11:35:46;;;;;;;49.13;11.82;;;;;;;;;;4400865;32;319373;-90
2023/10/25 11:38:13;;;;;;;40.17;9.93;;;;;;;;;;4391619;32;319156;-89
2023/10/25 11:40:42;;;;;;;46.00;9.45;;;;;;;;;;4431434;32;318339;-88
2023/10/25 11:43:10;;;;;;;35.08;9.23;;;;;;;;;;4386030;32;318735;-88
2023/10/25 11:45:38;;;;;;;41.45;10.23;;;;;;;;;;4387457;32;318683;-88
2023/10/25 11:48:05;;;;;;;42.95;9.93;;;;;;;;;;4387312;32;319275;-89
2023/10/25 11:50:32;;;;;;;43.33;11.48;;;;;;;;;;4381020;32;419126;-90
2023/10/25 11:53:01;;;;;;;32.80;10.35;;;;;;;;;;4405657;32;318842;-89
2023/10/25 11:55:28;;;;;;;36.45;9.40;;;;;;;;;;4405618;32;319409;-89
2023/10/25 11:57:56;;;;;;;41.75;11.40;;;;;;;;;;4416392;32;346593;-89
2023/10/25 12:00:24;;;;;;;36.42;12.10;;;;;;;;;;4400942;32;318972;-88
2023/10/25 12:02:51;;;;;;;47.28;11.27;;;;;;;;;;4417970;32;319381;-91
2023/10/25 12:05:18;;;;;;;44.25;10.13;;;;;;;;;;4407181;32;319447;-93
2023/10/25 12:07:48;;;;;;;46.20;12.57;;;;;;;;;;4418524;32;318871;-92
2023/10/25 12:10:17;;;;;;;51.45;12.55;;;;;;;;;;4400452;32;350216;-90
2023/10/25 12:12:45;;;;;;;48.47;12.30;;;;;;;;;;4408860;32;319268;-88
2023/10/25 12:15:12;;;;;;;45.40;12.15;;;;;;;;;;4397768;32;330522;-88
2023/10/25 12:17:39;;;;;;;47.13;11.02;;;;;;;;;;4394149;32;318243;-88
2023/10/25 12:20:07;;;;;;;49.22;12.10;;;;;;;;;;4398611;32;319742;-87
2023/10/25 12:22:33;;;;;;;37.63;11.63;;;;;;;;;;4401236;32;319607;-89
2023/10/25 12:25:00;;;;;;;59.47;14.25;;;;;;;;;;4406638;32;319267;-88
2023/10/25 12:27:28;;;;;;;41.95;12.88;;;;;;;;;;4397211;32;319715;-92
2023/10/25 12:29:55;;;;;;;35.65;12.02;;;;;;;;;;4404697;32;319486;-92
2023/10/25 12:32:22;;;;;;;28.42;11.60;;;;;;;;;;4388751;32;319384;-89
2023/10/25 12:34:49;;;;;;;46.85;13.07;;;;;;;;;;4405751;32;319277;-88
2023/10/25 12:37:15;;;;;;;37.42;12.93;;;;;;;;;;4397615;32;319808;-89
2023/10/25 12:39:42;;;;;;;39.85;12.15;;;;;;;;;;4405608;32;319363;-90
2023/10/25 12:42:09;;;;;;;46.20;11.07;;;;;;;;;;4393269;32;319313;-92
2023/10/25 12:44:37;;;;;;;59.50;13.02;;;;;;;;;;4398183;32;319466;-89
2023/10/25 12:47:04;;;;;;;52.20;12.90;;;;;;;;;;4403629;32;356210;-89
2023/10/25 12:49:31;;;;;;;48.60;11.65;;;;;;;;;;4392983;32;418959;-89
2023/10/25 12:51:58;;;;;;;52.80;11.95;;;;;;;;;;4406424;32;360327;-93
2023/10/25 12:54:25;;;;;;;56.78;12.40;;;;;;;;;;4390267;32;320159;-89
2023/10/25 12:56:51;;;;;;;39.63;10.30;;;;;;;;;;4406089;32;319610;-93
2023/10/25 12:59:18;;;;;;;67.53;12.98;;;;;;;;;;4395023;32;319447;-92
2023/10/25 13:01:50;;;;;;;58.83;12.20;;;;;;;;;;4396399;32;320109;-92
2023/10/25 13:04:17;;;;;;;61.05;12.45;;;;;;;;;;4372440;32;319194;-85
2023/10/25 13:06:44;;;;;;;59.95;12.25;;;;;;;;;;4391624;32;319982;-89
2023/10/25 13:09:12;;;;;;;70.32;12.57;;;;;;;;;;4373469;27;318870;-92
2023/10/25 13:11:38;;;;;;;78.47;14.43;;;;;;;;;;4373662;32;319635;-90
2023/10/25 13:14:05;;;;;;;62.62;13.52;;;;;;;;;;4374459;32;318898;-91
2023/10/25 13:16:32;;;;;;;60.50;12.43;;;;;;;;;;4354940;32;420023;-88
2023/10/25 13:19:01;;;;;;;63.80;13.82;;;;;;;;;;4373985;32;318845;-93
2023/10/25 13:21:28;;;;;;;71.78;13.10;;;;;;;;;;4365040;32;319436;-89
2023/10/25 13:23:55;;;;;;;69.12;14.05;;;;;;;;;;4375967;32;319323;-88
2023/10/25 13:26:22;;;;;;;68.40;14.98;;;;;;;;;;4365850;32;319829;-88
2023/10/25 13:28:51;;;;;;;52.25;15.77;;;;;;;;;;4390281;32;317660;-88
2023/10/25 13:31:18;;;;;;;49.25;13.98;;;;;;;;;;4378357;32;318526;-88
2023/10/25 13:33:45;;;;;;;73.15;13.88;;;;;;;;;;4394499;32;318679;-89
2023/10/25 13:36:13;;;;;;;54.58;12.85;;;;;;;;;;4379065;32;318008;-88
2023/10/25 13:38:40;;;;;;;82.82;14.15;;;;;;;;;;4377995;32;319355;-86
2023/10/25 13:41:06;;;;;;;72.35;12.23;;;;;;;;;;4365167;32;319447;-88
2023/10/25 13:43:33;;;;;;;73.85;13.88;;;;;;;;;;4362601;32;319827;-92
2023/10/25 13:46:00;;;;;;;80.20;13.45;;;;;;;;;;4374111;32;319175;-88
2023/10/25 13:48:27;;;;;;;70.40;15.13;;;;;;;;;;4360187;32;319809;-90
2023/10/25 13:50:56;;;;;;;82.32;14.05;;;;;;;;;;4387755;32;319747;-91
2023/10/25 13:53:24;;;;;;;54.15;13.15;;;;;;;;;;4375646;32;319549;-88
2023/10/25 13:55:50;;;;;;;68.32;12.77;;;;;;;;;;4388748;32;319766;-90
2023/10/25 13:58:18;;;;;;;58.50;13.87;;;;;;;;;;4371737;32;321261;-91
2023/10/25 14:00:45;;;;;;;71.68;13.95;;;;;;;;;;4390031;32;319311;-86
2023/10/25 14:03:12;;;;;;;71.95;13.75;;;;;;;;;;4380043;32;319176;-88
2023/10/25 14:05:42;;;;;;;71.50;15.45;;;;;;;;;;4390167;32;319692;-88
2023/10/25 14:08:09;;;;;;;63.78;15.07;;;;;;;;;;4378796;32;319435;-90
2023/10/25 14:10:43;;;;;;;75.82;19.30;;;;;;;;;;4389756;32;319470;-86
2023/10/25 14:13:13;;;;;;;64.53;16.33;;;;;;;;;;4379129;32;365391;-87
2023/10/25 14:15:40;;;;;;;79.00;16.73;;;;;;;;;;4389374;32;319373;-88
2023/10/25 14:18:09;;;;;;;56.13;13.93;;;;;;;;;;4376562;32;319895;-88
2023/10/25 14:20:37;;;;;;;67.97;16.50;;;;;;;;;;4370805;32;344162;-87
2023/10/25 14:23:04;;;;;;;78.93;16.15;;;;;;;;;;4379839;32;319289;-89
2023/10/25 14:25:30;;;;;;;73.10;15.40;;;;;;;;;;4377680;32;394504;-84
2023/10/25 14:27:58;;;;;;;76.62;14.85;;;;;;;;;;4384366;32;318731;-84
2023/10/25 14:30:25;;;;;;;52.33;13.95;;;;;;;;;;4372405;32;360572;-88
2023/10/25 14:32:52;;;;;;;52.15;13.73;;;;;;;;;;4389094;32;319466;-87
2023/10/25 14:35:19;;;;;;;57.22;13.13;;;;;;;;;;4371320;32;319064;-88
2023/10/25 14:37:46;;;;;;;70.03;12.70;;;;;;;;;;4374857;32;318793;-86
2023/10/25 14:40:13;;;;;;;66.90;15.60;;;;;;;;;;4358763;32;319310;-87
2023/10/25 14:42:40;;;;;;;51.33;12.25;;;;;;;;;;4373501;32;354254;-86
2023/10/25 14:45:10;;;;;;;65.87;12.30;;;;;;;;;;4364935;32;319669;-86
2023/10/25 14:47:37;;;;;;;66.50;13.82;;;;;;;;;;4372721;32;319490;-87
2023/10/25 14:50:04;;;;;;;72.43;14.70;;;;;;;;;;4373044;32;319053;-87
2023/10/25 14:52:31;;;;;;;63.10;13.40;;;;;;;;;;4364966;32;319436;-88
2023/10/25 14:54:58;;;;;;;49.15;11.95;;;;;;;;;;4387537;32;319728;-89
2023/10/25 14:57:25;;;;;;;74.32;12.73;;;;;;;;;;4378320;32;319602;-86
2023/10/25 14:59:52;;;;;;;65.47;14.40;;;;;;;;;;4376293;32;319952;-88
2023/10/25 15:02:24;;;;;;;56.85;14.73;;;;;;;;;;4365693;32;348369;-87
2023/10/25 15:04:50;;;;;;;75.22;17.62;;;;;;;;;;4399574;32;344112;-88
2023/10/25 15:07:17;;;;;;;74.45;21.77;;;;;;;;;;4378780;32;319227;-89
2023/10/25 15:09:46;;;;;;;72.25;17.17;;;;;;;;;;4388548;32;318971;-89
2023/10/25 15:12:13;;;;;;;76.72;16.95;;;;;;;;;;4372322;32;319945;-89
2023/10/25 15:14:39;;;;;;;75.07;16.85;;;;;;;;;;4385964;32;319243;-89